2022年9月28日

时间 代码 天气 温度 能见度 天花板 METAR/SPECI
20:55
V
12 °C 10 km+ - 210° 210° 9 kt METAR EHMA 281855Z AUTO 21009KT 180V250 9999 NSC 12/08 Q0997
20:25
V
13 °C 10 km+ - 190° 190° 4 kt METAR EHMA 281825Z AUTO 19004KT 9999 NSC 13/07 Q0997
19:55
V
13 °C 10 km+ - 200° 200° 3 kt METAR EHMA 281755Z AUTO 20003KT 9999 NSC 13/07 Q0997
19:25
V
13 °C 10 km+ - 190° 190° 4 kt METAR EHMA 281725Z AUTO 19004KT 9999 NSC 13/08 Q0997
18:55
V
14 °C 10 km+ - Var Var 2 kt METAR EHMA 281655Z AUTO VRB02KT 9999 NSC 14/07 Q0997
18:25
V
14 °C 10 km+ - Var Var 1 kt METAR EHMA 281625Z AUTO VRB01KT 9999 NSC 14/06 Q0997
17:55
V
13 °C 10 km+ - Var Var 1 kt METAR EHMA 281555Z AUTO VRB01KT 9999 NSC 13/07 Q0997
17:25
V
14 °C 10 km+ - Var Var 2 kt METAR EHMA 281525Z AUTO VRB02KT 9999 NSC 14/07 Q0997
16:55
V
14 °C 10 km+ - Var Var 2 kt METAR EHMA 281455Z AUTO VRB02KT 9999 NSC 14/07 Q0996
16:25
V
13 °C 10 km+ - 290° 290° 3 kt METAR EHMA 281425Z AUTO 29003KT 190V320 9999 NSC 13/07 Q0996
15:55
V
13 °C 10 km+ - 290° 290° 3 kt METAR EHMA 281355Z AUTO 29003KT 9999 NSC 13/07 Q0996
15:25
V
13 °C 10 km+ - Var Var 2 kt METAR EHMA 281325Z AUTO VRB02KT 9999 NSC 13/07 Q0996
14:55
V
13 °C 10 km+ - 300° 300° 3 kt METAR EHMA 281255Z AUTO 30003KT 9999 NSC 13/07 Q0996
14:25
V
13 °C 10 km+ - Var Var 2 kt METAR EHMA 281225Z AUTO VRB02KT 9999 NSC 13/07 Q0996
13:55
V
13 °C 10 km+ - Var Var 2 kt METAR EHMA 281155Z AUTO VRB02KT 9999 NSC 13/07 Q0996
13:25
V
13 °C 10 km+ - 270° 270° 3 kt METAR EHMA 281125Z AUTO 27003KT 220V310 9999 NCD 13/07 Q0996
12:55
V
13 °C 10 km+ - 280° 280° 3 kt METAR EHMA 281055Z AUTO 28003KT 240V320 9999 FEW026/// 13/07 Q0996
12:25
V
13 °C 10 km+ - 280° 280° 4 kt METAR EHMA 281025Z AUTO 28004KT 9999 FEW026 SCT040 13/07 Q0996
11:55
V
12 °C 10 km+ 4.100 ft 280° 280° 4 kt METAR EHMA 280955Z AUTO 28004KT 9999 FEW023/// SCT032/// BKN041/// 12/07 Q0996
11:25
V
12 °C 10 km+ - 290° 290° 4 kt METAR EHMA 280925Z AUTO 29004KT 230V320 9999 FEW023/// SCT030/// 12/08 Q0995
10:55
V
12 °C 10 km+ - 300° 300° 3 kt METAR EHMA 280855Z AUTO 30003KT 9999 NSC 12/07 Q0995
10:25
V
12 °C 10 km+ - 310° 310° 3 kt METAR EHMA 280825Z AUTO 31003KT 280V340 9999 NSC 12/07 Q0995
09:55
V
12 °C 10 km+ - 290° 290° 2 kt METAR EHMA 280755Z AUTO 29002KT 9999 FEW037 SCT045 12/07 Q0995
09:25
V
11 °C 10 km+ 3.600 ft 330° 330° 4 kt METAR EHMA 280725Z AUTO 33004KT 9999 -DZ FEW021 SCT030 BKN036 11/07 Q0995
08:55
V
11 °C 10 km+ 3.900 ft Var Var 4 kt METAR EHMA 280655Z AUTO VRB04KT 9999 FEW020 SCT023 BKN039 11/09 Q0994
08:25
V
12 °C 10 km+ - 350° 350° 4 kt METAR EHMA 280625Z AUTO 35004KT 320V020 9999 FEW020 12/07 Q0994
07:55
V
11 °C 10 km+ - Var Var 3 kt METAR EHMA 280555Z AUTO VRB03KT 9999 FEW011 11/08 Q0994
07:25
V
11 °C 10 km+ - 260° 260° 6 kt METAR EHMA 280525Z AUTO 26006KT 220V290 9999 FEW016 11/08 Q0994
06:55
V
11 °C 10 km+ - 260° 260° 8 kt METAR EHMA 280455Z AUTO 26008KT 9999 NSC 11/08 Q0994
06:25
V
10 °C 10 km+ - 240° 240° 7 kt METAR EHMA 280425Z AUTO 24007KT 9999 NSC 10/08 Q0994
05:55
V
10 °C 10 km+ - 220° 220° 6 kt METAR EHMA 280355Z AUTO 22006KT 9999 FEW015CB 10/08 Q0994
05:25
V
10 °C 10 km+ 4.100 ft 210° 210° 7 kt METAR EHMA 280325Z AUTO 21007KT 9999 DZRA FEW005 FEW015CB SCT033 BKN041 10/08 Q0994
04:55
M
10 °C 10 km+ 2.700 ft 210° 210° 5 kt METAR EHMA 280255Z AUTO 21005KT 9999 -RA FEW000 SCT006 FEW015CB BKN027 10/07 Q0994 RERA REDZ
04:25
I
10 °C 3,9 km 600 ft Var Var 4 kt METAR EHMA 280225Z AUTO VRB04KT 3900 -SHRA SCT000 SCT001 BKN006 FEW015CB 10/08 Q0994 RERA
03:55
I
10 °C 2,3 km 3.600 ft 230° 230° 5 kt METAR EHMA 280155Z AUTO 23005KT 180V280 2300 +SHRA FEW000 FEW015CB BKN036 BKN042 10/08 Q0994 REDZ
03:25
M
10 °C 6 km 4.900 ft 200° 200° 9 kt METAR EHMA 280125Z AUTO 20009KT 6000 -RA FEW015CB SCT038 BKN049 10/08 Q0994
02:55
V
10 °C 10 km+ - 210° 210° 10 kt METAR EHMA 280055Z AUTO 21010KT 9999 FEW015CB 10/08 Q0994
02:25
V
10 °C 10 km+ - 210° 210° 9 kt METAR EHMA 280025Z AUTO 21009KT 9999 NSC 10/08 Q0994
01:55
V
10 °C 10 km+ - 210° 210° 10 kt METAR EHMA 272355Z AUTO 21010KT 9999 NSC 10/07 Q0994
01:25
V
10 °C 10 km+ - Var Var 8 kt METAR EHMA 272325Z AUTO VRB08KT 9999 NSC 10/08 Q0994
00:55
V
10 °C 10 km+ - 220° 220° 10 kt METAR EHMA 272255Z AUTO 22010KT 9999 NSC 10/08 Q0995
00:25
V
10 °C 10 km+ - 220° 220° 10 kt METAR EHMA 272225Z AUTO 22010KT 9999 NSC 10/08 Q0995

2022年9月27日

时间 代码 天气 温度 能见度 天花板 METAR/SPECI
23:55
V
10 °C 10 km+ - 240° 240° 10 kt METAR EHMA 272155Z AUTO 24010KT 9999 SCT039 10/08 Q0995
23:25
V
10 °C 10 km+ - 230° 230° 11 kt METAR EHMA 272125Z AUTO 23011KT 9999 FEW009 SCT040 10/08 Q0995
22:55
V
10 °C 10 km+ 4.000 ft 240° 240° 13 kt METAR EHMA 272055Z AUTO 24013KT 9999 FEW009 FEW015CB BKN040 BKN047 10/08 Q0995
22:25
V
11 °C 10 km+ - 260° 260° 11 kt METAR EHMA 272025Z AUTO 26011KT 9999 FEW032 SCT040 11/07 Q0995 REDZ
21:55
V
11 °C 10 km+ 3.600 ft 250° 250° 11 kt METAR EHMA 271955Z AUTO 25011KT 9999 -RA FEW016 BKN036 BKN041 11/07 Q0995
21:25
V
10 °C 10 km+ - 240° 240° 11 kt METAR EHMA 271925Z AUTO 24011KT 9999 -DZRA FEW015CB SCT036 10/08 Q0995
20:55
V
10 °C 10 km+ - 240° 240° 13 kt METAR EHMA 271855Z AUTO 24013KT 9999 FEW015CB 10/07 Q0995
20:25
V
10 °C 10 km+ - 240° 240° 13 kt METAR EHMA 271825Z AUTO 24013KT 9999 FEW015CB SCT040 10/07 Q0995
19:55
V
10 °C 10 km+ 3.800 ft 230° 230° 14 kt METAR EHMA 271755Z AUTO 23014KT 9999 FEW006 FEW015CB SCT026 BKN038 10/07 Q0995
19:25
V
9 °C 10 km+ 3.800 ft 220° 220° 16 kt METAR EHMA 271725Z AUTO 22016KT 9999 DZ FEW006 BKN038 BKN043 09/07 Q0995
18:55
V
10 °C 10 km+ 3.800 ft 220° 220° 12 kt METAR EHMA 271655Z AUTO 22012KT 9999 DZ FEW001 FEW015CB BKN038 10/07 Q0995
18:25
V
10 °C 9 km 3.800 ft 220° 220° 8 kt METAR EHMA 271625Z AUTO 22008KT 9000 -RA FEW001 FEW015CB BKN038 OVC042 10/07 Q0995 RERA REDZ
17:55
V
10 °C 10 km+ 4.000 ft 260° 260° 10 kt METAR EHMA 271555Z AUTO 26010KT 230V290 9999 DZ FEW015CB SCT024 BKN040 10/07 Q0995
17:25
V
11 °C 10 km+ - 300° 300° 10 kt METAR EHMA 271525Z AUTO 30010KT 9999 FEW016 11/07 Q0995
16:55
V
11 °C 10 km+ - 290° 290° 9 kt METAR EHMA 271455Z AUTO 29009KT 9999 FEW018 SCT040 11/07 Q0995
16:25
V
11 °C 10 km+ 4.400 ft 290° 290° 16 kt METAR EHMA 271425Z AUTO 29016KT 9999 -RA FEW018 BKN044 11/07 Q0995
15:55
V
11 °C 10 km+ - 290° 290° 13 kt METAR EHMA 271355Z AUTO 29013KT 9999 -RA FEW001 SCT038 11/06 Q0995
15:25
V
11 °C 10 km+ 3.700 ft 290° 290° 14 kt METAR EHMA 271325Z AUTO 29014KT 9999 FEW001 BKN037 BKN042 11/05 Q0995 RERA
14:55
V
11 °C 10 km+ 4.100 ft 290° 290° 19 kt METAR EHMA 271255Z AUTO 29019KT 9999 -RA FEW017CB SCT037 BKN041 11/06 Q0995
14:25
V
12 °C 10 km+ - 300° 300° 12 kt METAR EHMA 271225Z AUTO 30012KT 9999 FEW023CB SCT041 12/06 Q0995
13:55
V
12 °C 10 km+ 4.500 ft 290° 290° 12 kt METAR EHMA 271155Z AUTO 29012KT 9999 FEW019 SCT041 BKN045 12/05 Q0995
13:25
V
11 °C 10 km+ 3.900 ft 290° 290° 13 kt METAR EHMA 271125Z AUTO 29013KT 9999 FEW019 SCT034 BKN039 11/07 Q0995
12:55
V
11 °C 10 km+ 3.500 ft 310° 310° 15 kt METAR EHMA 271055Z AUTO 31015KT 9999 -RA FEW012 FEW018CB SCT027 BKN035 11/06 Q0995 RERA
12:25
V
12 °C 10 km+ - 310° 310° 15 kt METAR EHMA 271025Z AUTO 31015KT 9999 FEW019 SCT032 12/07 Q0995
11:55
V
12 °C 10 km+ 3.800 ft 300° 300° 15 kt METAR EHMA 270955Z AUTO 30015KT 9999 FEW020 SCT026 BKN038 12/06 Q0995 REDZ
11:25
V
12 °C 10 km+ 3.100 ft 340° 340° 17 kt METAR EHMA 270925Z AUTO 34017KT 300V360 9999 DZ FEW017 SCT022 BKN031 12/07 Q0995
10:55
V
11 °C 10 km+ 3.800 ft 340° 340° 20 kt METAR EHMA 270855Z AUTO 34020KT 9999 -RA FEW017 SCT026 BKN038 11/07 Q0994 RERA REDZ
10:25
V
12 °C 10 km+ 3.800 ft 320° 320° 19 kt METAR EHMA 270825Z AUTO 32019KT 9999 DZ FEW017 SCT022 BKN038 12/08 Q0994
09:55
V
12 °C 10 km+ - 310° 310° 19 kt METAR EHMA 270755Z AUTO 31019KT 9999 FEW021 SCT025 12/06 Q0994
09:25
V
12 °C 10 km+ 3.900 ft 320° 320° 21 kt METAR EHMA 270725Z AUTO 32021KT 9999 FEW021 SCT024 BKN039 12/07 Q0994
08:55
M
12 °C 10 km+ 2.800 ft 320° 320° 22 kt METAR EHMA 270655Z AUTO 32022KT 9999 FEW021 SCT024 BKN028 12/07 Q0993 REDZ
08:25
V
12 °C 10 km+ 4.600 ft 330° 330° 18 kt METAR EHMA 270625Z AUTO 33018KT 9999 FEW025 SCT029 BKN046 12/07 Q0994
07:55
V
12 °C 10 km+ 4.500 ft 310° 310° 17 kt METAR EHMA 270555Z AUTO 31017KT 9999 -DZ FEW017 FEW020CB SCT036 BKN045 12/07 Q0993
07:25
V
12 °C 10 km+ - 300° 300° 20 kt METAR EHMA 270525Z AUTO 30020KT 9999 FEW018CB SCT038 12/07 Q0993
06:55
V
12 °C 10 km+ 3.700 ft 310° 310° 23 kt METAR EHMA 270455Z AUTO 31023KT 9999 FEW020CB SCT025 BKN037 12/07 Q0993
06:25
M
12 °C 10 km+ 2.600 ft 330° 330° 25 kt METAR EHMA 270425Z AUTO 33025KT 9999 FEW001 FEW021CB BKN026 BKN033 12/07 Q0993
05:55
V
13 °C 10 km+ 4.100 ft 320° 320° 20 kt METAR EHMA 270355Z AUTO 32020KT 9999 FEW001 FEW023CB SCT027 BKN041 13/07 Q0993 REDZ
05:25
V
12 °C 10 km+ 4.600 ft 320° 320° 22 kt METAR EHMA 270325Z AUTO 32022KT 9999 -RA FEW001 FEW015CB SCT040 BKN046 12/08 Q0993
04:55
V
12 °C 10 km+ 4.100 ft 320° 320° 21 kt METAR EHMA 270255Z AUTO 32021KT 9999 -RA FEW013 FEW018CB SCT025 BKN041 12/08 Q0993
04:25
V
13 °C 10 km+ 3.800 ft 320° 320° 25 kt METAR EHMA 270225Z AUTO 32025KT 9999 FEW001 FEW022CB SCT025 BKN038 13/07 Q0993 RERA
03:55
V
13 °C 10 km+ 4.400 ft 330° 330° 21 kt METAR EHMA 270155Z AUTO 33021KT 9999 FEW001 FEW020CB SCT035 BKN044 13/07 Q0993
03:25
M
12 °C 7 km 4.300 ft 320° 320° 23 kt METAR EHMA 270125Z AUTO 32023KT 7000 -RA FEW001 FEW015CB SCT038 BKN043 12/08 Q0993 RERA REDZ
02:55
I
11 °C 4,1 km 3.100 ft 310° 310° 28 kt METAR EHMA 270055Z AUTO 31028KT 290V350 4100 SHRA FEW001 FEW015CB SCT023 BKN031 11/07 Q0993
02:25
V
13 °C 10 km+ 3.900 ft 330° 330° 23 kt METAR EHMA 270025Z AUTO 33023KT 9999 FEW022/// SCT025/// BKN039/// 13/08 Q0993
01:55
V
12 °C 10 km+ 3.600 ft 330° 330° 22 kt METAR EHMA 262355Z AUTO 33022KT 9999 FEW018 FEW019CB SCT027 BKN036 12/08 Q0993
01:25
V
12 °C 10 km+ 4.300 ft 340° 340° 22 kt METAR EHMA 262325Z AUTO 34022KT 9999 FEW018CB SCT031 BKN043 12/08 Q0993 REDZ
00:55
V
13 °C 10 km+ - 340° 340° 23 kt METAR EHMA 262255Z AUTO 34023KT 9999 FEW018 FEW019CB SCT029 13/08 Q0993
00:25
V
12 °C 10 km+ 4.200 ft 340° 340° 21 kt METAR EHMA 262225Z AUTO 34021KT 9999 FEW016CB SCT028 BKN042 12/08 Q0993

2022年9月26日

时间 代码 天气 温度 能见度 天花板 METAR/SPECI
23:55
V
12 °C 10 km+ 3.000 ft 310° 310° 26 kt METAR EHMA 262155Z AUTO 31026KT 9999 FEW016 FEW017CB SCT021 BKN030 12/08 Q0993
23:25
V
13 °C 10 km+ 3.400 ft 330° 330° 23 kt METAR EHMA 262125Z AUTO 33023KT 9999 -RA FEW017 SCT022 BKN034 13/08 Q0993 RERA REDZ
22:55
V
13 °C 10 km+ - 310° 310° 22 kt METAR EHMA 262055Z AUTO 31022KT 9999 FEW020 SCT045 13/08 Q0993
22:25
V
13 °C 10 km+ - 310° 310° 26 kt METAR EHMA 262025Z AUTO 31026KT 9999 FEW020 13/08 Q0993
21:55
V
14 °C 10 km+ - 310° 310° 22 kt METAR EHMA 261955Z AUTO 31022KT 9999 FEW025 SCT038 14/08 Q0993
21:25
V
14 °C 10 km+ - 310° 310° 22 kt METAR EHMA 261925Z AUTO 31022KT 9999 FEW021 FEW023CB SCT031 14/08 Q0993
20:55
V
13 °C 10 km+ 3.500 ft 350° 350° 18 kt METAR EHMA 261855Z AUTO 35018KT 9999 FEW015CB SCT025 BKN035 13/09 Q0993 REDZ
20:25
V
13 °C 10 km+ 4.000 ft 340° 340° 10 kt METAR EHMA 261825Z AUTO 34010KT 9999 FEW015CB SCT028 BKN040 13/10 Q0993
19:55
V
14 °C 10 km+ - 320° 320° 17 kt METAR EHMA 261755Z AUTO 32017KT 9999 FEW018CB SCT033 14/09 Q0993
19:25
V
13 °C 10 km+ 3.000 ft 320° 320° 19 kt METAR EHMA 261725Z AUTO 32019KT 9999 FEW015CB SCT025 BKN030 13/10 Q0993 RERA
18:55
M
12 °C 7 km - 320° 320° 15 kt METAR EHMA 261655Z AUTO 32015KT 7000 RADZ FEW015 SCT028 12/10 Q0993
18:25
V
13 °C 10 km+ 3.900 ft 300° 300° 19 kt METAR EHMA 261625Z AUTO 30019KT 9999 FEW015 SCT020 BKN039 13/10 Q0993
17:55
L
14 °C 0 m - 300° 300° 17 kt METAR EHMA 261555Z AUTO 30017KT //// // FEW019 SCT022 14/08 Q0993 RE//
17:25
V
14 °C 10 km+ - 290° 290° 18 kt METAR EHMA 261525Z AUTO 29018KT 9999 FEW016/// SCT045/// 14/09 Q0993
16:55
L
13 °C 0 m - 290° 290° 23 kt METAR EHMA 261455Z AUTO 29023KT //// // FEW000 SCT019 13/10 Q0993 RE//
较旧的数据

我们和第三方通过cookies跟踪您在我们网站上的上网行为。如果您继续,我们认为您同意我们的cookie政策。 了解更多